sensor_id;sensor_type;location;lat;lon;timestamp;P1;durP1;ratioP1;P2;durP2;ratioP2
45893;SDS011;31603;51.148;16.932;2023-03-19T00:02:05;36.85;;;20.63;;
45893;SDS011;31603;51.148;16.932;2023-03-19T00:04:33;37.20;;;20.45;;
45893;SDS011;31603;51.148;16.932;2023-03-19T00:06:59;35.03;;;18.38;;
45893;SDS011;31603;51.148;16.932;2023-03-19T00:09:26;35.40;;;17.95;;
45893;SDS011;31603;51.148;16.932;2023-03-19T00:11:53;39.50;;;18.52;;
45893;SDS011;31603;51.148;16.932;2023-03-19T00:14:19;102.32;;;49.85;;
45893;SDS011;31603;51.148;16.932;2023-03-19T00:16:46;74.50;;;37.47;;
45893;SDS011;31603;51.148;16.932;2023-03-19T00:19:14;49.63;;;24.02;;
45893;SDS011;31603;51.148;16.932;2023-03-19T00:21:40;38.72;;;19.90;;
45893;SDS011;31603;51.148;16.932;2023-03-19T00:24:07;42.42;;;20.30;;
45893;SDS011;31603;51.148;16.932;2023-03-19T00:26:34;38.92;;;20.73;;
45893;SDS011;31603;51.148;16.932;2023-03-19T00:29:01;40.83;;;19.83;;
45893;SDS011;31603;51.148;16.932;2023-03-19T00:31:29;46.85;;;22.98;;
45893;SDS011;31603;51.148;16.932;2023-03-19T00:33:57;49.58;;;24.27;;
45893;SDS011;31603;51.148;16.932;2023-03-19T00:36:26;53.22;;;24.80;;
45893;SDS011;31603;51.148;16.932;2023-03-19T00:38:54;59.55;;;26.27;;
45893;SDS011;31603;51.148;16.932;2023-03-19T00:41:20;65.07;;;26.38;;
45893;SDS011;31603;51.148;16.932;2023-03-19T00:43:50;54.78;;;25.30;;
45893;SDS011;31603;51.148;16.932;2023-03-19T00:46:18;63.67;;;27.05;;
45893;SDS011;31603;51.148;16.932;2023-03-19T00:48:44;56.42;;;24.23;;
45893;SDS011;31603;51.148;16.932;2023-03-19T00:51:11;61.72;;;26.45;;
45893;SDS011;31603;51.148;16.932;2023-03-19T00:53:39;54.03;;;23.15;;
45893;SDS011;31603;51.148;16.932;2023-03-19T00:56:07;45.17;;;20.10;;
45893;SDS011;31603;51.148;16.932;2023-03-19T00:58:34;50.28;;;21.00;;
45893;SDS011;31603;51.148;16.932;2023-03-19T01:01:02;45.22;;;21.30;;
45893;SDS011;31603;51.148;16.932;2023-03-19T01:03:29;51.45;;;22.27;;
45893;SDS011;31603;51.148;16.932;2023-03-19T01:05:56;53.78;;;24.38;;
45893;SDS011;31603;51.148;16.932;2023-03-19T01:08:23;55.15;;;24.90;;
45893;SDS011;31603;51.148;16.932;2023-03-19T01:10:51;62.97;;;29.30;;
45893;SDS011;31603;51.148;16.932;2023-03-19T01:13:18;56.63;;;24.80;;
45893;SDS011;31603;51.148;16.932;2023-03-19T01:15:45;56.53;;;25.45;;
45893;SDS011;31603;51.148;16.932;2023-03-19T01:18:12;50.78;;;23.55;;
45893;SDS011;31603;51.148;16.932;2023-03-19T01:20:39;57.20;;;27.17;;
45893;SDS011;31603;51.148;16.932;2023-03-19T01:23:06;51.58;;;23.30;;
45893;SDS011;31603;51.148;16.932;2023-03-19T01:25:33;46.53;;;21.33;;
45893;SDS011;31603;51.148;16.932;2023-03-19T01:28:01;49.63;;;23.67;;
45893;SDS011;31603;51.148;16.932;2023-03-19T01:30:28;49.03;;;22.58;;
45893;SDS011;31603;51.148;16.932;2023-03-19T01:32:54;41.53;;;21.08;;
45893;SDS011;31603;51.148;16.932;2023-03-19T01:35:21;45.15;;;22.40;;
45893;SDS011;31603;51.148;16.932;2023-03-19T01:37:47;47.97;;;20.77;;
45893;SDS011;31603;51.148;16.932;2023-03-19T01:40:15;45.22;;;21.35;;
45893;SDS011;31603;51.148;16.932;2023-03-19T01:42:51;42.20;;;21.20;;
45893;SDS011;31603;51.148;16.932;2023-03-19T01:45:30;42.75;;;20.05;;
45893;SDS011;31603;51.148;16.932;2023-03-19T01:47:58;39.75;;;17.70;;
45893;SDS011;31603;51.148;16.932;2023-03-19T01:50:26;36.75;;;18.65;;
45893;SDS011;31603;51.148;16.932;2023-03-19T01:52:58;40.25;;;18.23;;
45893;SDS011;31603;51.148;16.932;2023-03-19T01:55:26;35.05;;;16.92;;
45893;SDS011;31603;51.148;16.932;2023-03-19T01:57:52;39.85;;;18.73;;
45893;SDS011;31603;51.148;16.932;2023-03-19T02:00:19;33.85;;;16.90;;
45893;SDS011;31603;51.148;16.932;2023-03-19T02:02:49;35.15;;;17.13;;
45893;SDS011;31603;51.148;16.932;2023-03-19T02:05:19;34.17;;;16.83;;
45893;SDS011;31603;51.148;16.932;2023-03-19T02:07:49;40.90;;;19.05;;
45893;SDS011;31603;51.148;16.932;2023-03-19T02:10:18;37.83;;;17.40;;
45893;SDS011;31603;51.148;16.932;2023-03-19T02:12:46;34.65;;;15.68;;
45893;SDS011;31603;51.148;16.932;2023-03-19T02:15:13;35.25;;;17.38;;
45893;SDS011;31603;51.148;16.932;2023-03-19T02:17:40;41.75;;;18.02;;
45893;SDS011;31603;51.148;16.932;2023-03-19T02:20:10;40.80;;;19.05;;
45893;SDS011;31603;51.148;16.932;2023-03-19T02:22:42;39.92;;;19.23;;
45893;SDS011;31603;51.148;16.932;2023-03-19T02:25:18;36.80;;;16.98;;
45893;SDS011;31603;51.148;16.932;2023-03-19T02:27:51;34.38;;;17.45;;
45893;SDS011;31603;51.148;16.932;2023-03-19T02:30:19;54.67;;;27.42;;
45893;SDS011;31603;51.148;16.932;2023-03-19T02:32:50;106.97;;;51.47;;
45893;SDS011;31603;51.148;16.932;2023-03-19T02:35:16;55.03;;;25.00;;
45893;SDS011;31603;51.148;16.932;2023-03-19T02:37:44;41.97;;;21.15;;
45893;SDS011;31603;51.148;16.932;2023-03-19T02:40:11;36.00;;;17.23;;
45893;SDS011;31603;51.148;16.932;2023-03-19T02:42:43;36.60;;;17.27;;
45893;SDS011;31603;51.148;16.932;2023-03-19T02:45:11;36.03;;;16.88;;
45893;SDS011;31603;51.148;16.932;2023-03-19T02:47:39;43.78;;;20.98;;
45893;SDS011;31603;51.148;16.932;2023-03-19T02:50:06;35.55;;;17.20;;
45893;SDS011;31603;51.148;16.932;2023-03-19T02:52:33;29.77;;;14.95;;
45893;SDS011;31603;51.148;16.932;2023-03-19T02:55:00;34.42;;;16.00;;
45893;SDS011;31603;51.148;16.932;2023-03-19T02:57:27;30.05;;;15.35;;
45893;SDS011;31603;51.148;16.932;2023-03-19T02:59:53;32.70;;;16.17;;
45893;SDS011;31603;51.148;16.932;2023-03-19T03:02:21;34.90;;;16.20;;
45893;SDS011;31603;51.148;16.932;2023-03-19T03:04:48;37.55;;;17.02;;
45893;SDS011;31603;51.148;16.932;2023-03-19T03:07:26;29.92;;;15.70;;
45893;SDS011;31603;51.148;16.932;2023-03-19T03:09:53;29.30;;;16.40;;
45893;SDS011;31603;51.148;16.932;2023-03-19T03:12:20;35.53;;;16.23;;
45893;SDS011;31603;51.148;16.932;2023-03-19T03:14:50;32.03;;;16.55;;
45893;SDS011;31603;51.148;16.932;2023-03-19T03:17:17;32.03;;;15.93;;
45893;SDS011;31603;51.148;16.932;2023-03-19T03:19:45;39.33;;;18.73;;
45893;SDS011;31603;51.148;16.932;2023-03-19T03:22:12;40.67;;;20.15;;
45893;SDS011;31603;51.148;16.932;2023-03-19T03:24:38;37.63;;;18.23;;
45893;SDS011;31603;51.148;16.932;2023-03-19T03:27:05;39.65;;;18.88;;
45893;SDS011;31603;51.148;16.932;2023-03-19T03:29:32;30.30;;;15.75;;
45893;SDS011;31603;51.148;16.932;2023-03-19T03:31:58;40.88;;;18.85;;
45893;SDS011;31603;51.148;16.932;2023-03-19T03:34:25;35.20;;;16.67;;
45893;SDS011;31603;51.148;16.932;2023-03-19T03:36:53;36.35;;;18.23;;
45893;SDS011;31603;51.148;16.932;2023-03-19T03:39:22;39.70;;;17.83;;
45893;SDS011;31603;51.148;16.932;2023-03-19T03:41:48;34.83;;;17.92;;
45893;SDS011;31603;51.148;16.932;2023-03-19T03:44:15;41.00;;;19.15;;
45893;SDS011;31603;51.148;16.932;2023-03-19T03:46:43;36.03;;;17.25;;
45893;SDS011;31603;51.148;16.932;2023-03-19T03:49:09;33.65;;;17.63;;
45893;SDS011;31603;51.148;16.932;2023-03-19T03:51:37;38.53;;;17.33;;
45893;SDS011;31603;51.148;16.932;2023-03-19T03:54:05;36.95;;;18.55;;
45893;SDS011;31603;51.148;16.932;2023-03-19T03:56:31;44.63;;;22.38;;
45893;SDS011;31603;51.148;16.932;2023-03-19T03:58:58;44.53;;;21.95;;
45893;SDS011;31603;51.148;16.932;2023-03-19T04:01:25;42.15;;;21.73;;
45893;SDS011;31603;51.148;16.932;2023-03-19T04:03:52;40.97;;;19.23;;
45893;SDS011;31603;51.148;16.932;2023-03-19T04:06:19;34.42;;;17.02;;
45893;SDS011;31603;51.148;16.932;2023-03-19T04:08:48;37.80;;;18.10;;
45893;SDS011;31603;51.148;16.932;2023-03-19T04:11:18;43.47;;;21.92;;
45893;SDS011;31603;51.148;16.932;2023-03-19T04:13:48;46.25;;;22.20;;
45893;SDS011;31603;51.148;16.932;2023-03-19T04:16:15;47.88;;;23.08;;
45893;SDS011;31603;51.148;16.932;2023-03-19T04:18:41;54.35;;;24.75;;
45893;SDS011;31603;51.148;16.932;2023-03-19T04:21:08;41.58;;;21.70;;
45893;SDS011;31603;51.148;16.932;2023-03-19T04:23:35;32.97;;;18.38;;
45893;SDS011;31603;51.148;16.932;2023-03-19T04:26:02;34.97;;;17.65;;
45893;SDS011;31603;51.148;16.932;2023-03-19T04:28:33;37.42;;;18.38;;
45893;SDS011;31603;51.148;16.932;2023-03-19T04:30:59;38.58;;;20.17;;
45893;SDS011;31603;51.148;16.932;2023-03-19T04:33:27;33.03;;;17.63;;
45893;SDS011;31603;51.148;16.932;2023-03-19T04:35:54;41.92;;;19.42;;
45893;SDS011;31603;51.148;16.932;2023-03-19T04:38:21;32.17;;;16.48;;
45893;SDS011;31603;51.148;16.932;2023-03-19T04:40:52;34.65;;;18.15;;
45893;SDS011;31603;51.148;16.932;2023-03-19T04:43:20;38.05;;;19.40;;
45893;SDS011;31603;51.148;16.932;2023-03-19T04:45:49;38.47;;;19.05;;
45893;SDS011;31603;51.148;16.932;2023-03-19T04:48:16;39.67;;;19.35;;
45893;SDS011;31603;51.148;16.932;2023-03-19T04:50:43;37.75;;;20.20;;
45893;SDS011;31603;51.148;16.932;2023-03-19T04:53:11;47.13;;;21.17;;
45893;SDS011;31603;51.148;16.932;2023-03-19T04:55:38;150.50;;;77.72;;
45893;SDS011;31603;51.148;16.932;2023-03-19T04:58:05;124.13;;;67.68;;
45893;SDS011;31603;51.148;16.932;2023-03-19T05:00:34;60.17;;;33.05;;
45893;SDS011;31603;51.148;16.932;2023-03-19T05:03:03;49.03;;;24.55;;
45893;SDS011;31603;51.148;16.932;2023-03-19T05:05:29;47.55;;;21.92;;
45893;SDS011;31603;51.148;16.932;2023-03-19T05:07:56;42.60;;;21.05;;
45893;SDS011;31603;51.148;16.932;2023-03-19T05:10:22;46.92;;;25.73;;
45893;SDS011;31603;51.148;16.932;2023-03-19T05:12:50;42.15;;;24.92;;
45893;SDS011;31603;51.148;16.932;2023-03-19T05:15:19;46.80;;;23.90;;
45893;SDS011;31603;51.148;16.932;2023-03-19T05:17:46;53.17;;;26.10;;
45893;SDS011;31603;51.148;16.932;2023-03-19T05:20:14;47.95;;;27.20;;
45893;SDS011;31603;51.148;16.932;2023-03-19T05:22:47;41.55;;;21.77;;
45893;SDS011;31603;51.148;16.932;2023-03-19T05:25:14;36.63;;;18.42;;
45893;SDS011;31603;51.148;16.932;2023-03-19T05:27:40;40.40;;;20.00;;
45893;SDS011;31603;51.148;16.932;2023-03-19T05:30:07;39.75;;;19.77;;
45893;SDS011;31603;51.148;16.932;2023-03-19T05:32:34;40.72;;;19.77;;
45893;SDS011;31603;51.148;16.932;2023-03-19T05:35:01;41.75;;;19.38;;
45893;SDS011;31603;51.148;16.932;2023-03-19T05:37:29;36.47;;;19.42;;
45893;SDS011;31603;51.148;16.932;2023-03-19T05:39:55;38.00;;;19.40;;
45893;SDS011;31603;51.148;16.932;2023-03-19T05:42:22;38.92;;;19.25;;
45893;SDS011;31603;51.148;16.932;2023-03-19T05:44:49;36.53;;;20.50;;
45893;SDS011;31603;51.148;16.932;2023-03-19T05:47:15;40.20;;;21.13;;
45893;SDS011;31603;51.148;16.932;2023-03-19T05:49:42;38.65;;;20.13;;
45893;SDS011;31603;51.148;16.932;2023-03-19T05:52:09;43.67;;;20.35;;
45893;SDS011;31603;51.148;16.932;2023-03-19T05:54:37;39.75;;;19.55;;
45893;SDS011;31603;51.148;16.932;2023-03-19T05:57:05;41.63;;;20.40;;
45893;SDS011;31603;51.148;16.932;2023-03-19T05:59:32;44.78;;;20.33;;
45893;SDS011;31603;51.148;16.932;2023-03-19T06:01:58;41.95;;;19.00;;
45893;SDS011;31603;51.148;16.932;2023-03-19T06:04:25;39.10;;;20.67;;
45893;SDS011;31603;51.148;16.932;2023-03-19T06:06:51;35.80;;;18.52;;
45893;SDS011;31603;51.148;16.932;2023-03-19T06:09:20;39.60;;;19.67;;
45893;SDS011;31603;51.148;16.932;2023-03-19T06:11:50;38.75;;;21.52;;
45893;SDS011;31603;51.148;16.932;2023-03-19T06:14:17;37.58;;;19.90;;
45893;SDS011;31603;51.148;16.932;2023-03-19T06:16:58;43.45;;;22.45;;
45893;SDS011;31603;51.148;16.932;2023-03-19T06:19:27;40.50;;;21.20;;
45893;SDS011;31603;51.148;16.932;2023-03-19T06:21:53;41.45;;;19.55;;
45893;SDS011;31603;51.148;16.932;2023-03-19T06:24:20;40.42;;;20.15;;
45893;SDS011;31603;51.148;16.932;2023-03-19T06:26:56;36.30;;;17.90;;
45893;SDS011;31603;51.148;16.932;2023-03-19T06:29:24;35.70;;;19.35;;
45893;SDS011;31603;51.148;16.932;2023-03-19T06:31:51;34.97;;;17.13;;
45893;SDS011;31603;51.148;16.932;2023-03-19T06:34:19;34.33;;;17.60;;
45893;SDS011;31603;51.148;16.932;2023-03-19T06:36:45;29.13;;;16.55;;
45893;SDS011;31603;51.148;16.932;2023-03-19T06:39:12;32.70;;;17.48;;
45893;SDS011;31603;51.148;16.932;2023-03-19T06:41:40;30.38;;;17.23;;
45893;SDS011;31603;51.148;16.932;2023-03-19T06:44:08;35.40;;;18.70;;
45893;SDS011;31603;51.148;16.932;2023-03-19T06:46:36;32.45;;;16.73;;
45893;SDS011;31603;51.148;16.932;2023-03-19T06:49:04;29.42;;;15.40;;
45893;SDS011;31603;51.148;16.932;2023-03-19T06:51:31;27.50;;;16.08;;
45893;SDS011;31603;51.148;16.932;2023-03-19T06:53:57;27.50;;;15.43;;
45893;SDS011;31603;51.148;16.932;2023-03-19T06:56:24;28.63;;;14.57;;
45893;SDS011;31603;51.148;16.932;2023-03-19T06:58:51;28.33;;;15.27;;
45893;SDS011;31603;51.148;16.932;2023-03-19T07:01:19;32.42;;;16.38;;
45893;SDS011;31603;51.148;16.932;2023-03-19T07:03:45;26.92;;;14.20;;
45893;SDS011;31603;51.148;16.932;2023-03-19T07:06:14;26.73;;;13.88;;
45893;SDS011;31603;51.148;16.932;2023-03-19T07:08:41;23.15;;;13.52;;
45893;SDS011;31603;51.148;16.932;2023-03-19T07:12:06;23.80;;;13.07;;
45893;SDS011;31603;51.148;16.932;2023-03-19T07:15:31;24.25;;;13.52;;
45893;SDS011;31603;51.148;16.932;2023-03-19T07:18:57;22.80;;;13.35;;
45893;SDS011;31603;51.148;16.932;2023-03-19T07:22:22;24.08;;;14.38;;
45893;SDS011;31603;51.148;16.932;2023-03-19T07:25:47;26.98;;;14.70;;
45893;SDS011;31603;51.148;16.932;2023-03-19T07:29:13;23.88;;;13.25;;
45893;SDS011;31603;51.148;16.932;2023-03-19T07:32:40;26.35;;;14.70;;
45893;SDS011;31603;51.148;16.932;2023-03-19T07:36:06;25.08;;;13.93;;
45893;SDS011;31603;51.148;16.932;2023-03-19T07:39:31;22.40;;;13.18;;
45893;SDS011;31603;51.148;16.932;2023-03-19T07:41:58;24.88;;;15.20;;
45893;SDS011;31603;51.148;16.932;2023-03-19T07:45:23;23.88;;;13.90;;
45893;SDS011;31603;51.148;16.932;2023-03-19T07:48:50;26.15;;;14.07;;
45893;SDS011;31603;51.148;16.932;2023-03-19T07:52:15;24.23;;;12.95;;
45893;SDS011;31603;51.148;16.932;2023-03-19T07:55:40;26.98;;;13.85;;
45893;SDS011;31603;51.148;16.932;2023-03-19T07:59:05;25.55;;;13.32;;
45893;SDS011;31603;51.148;16.932;2023-03-19T08:02:32;21.63;;;13.02;;
45893;SDS011;31603;51.148;16.932;2023-03-19T08:05:59;23.33;;;13.90;;
45893;SDS011;31603;51.148;16.932;2023-03-19T08:09:24;22.98;;;14.13;;
45893;SDS011;31603;51.148;16.932;2023-03-19T08:12:49;21.63;;;13.02;;
45893;SDS011;31603;51.148;16.932;2023-03-19T08:16:15;21.17;;;12.05;;
45893;SDS011;31603;51.148;16.932;2023-03-19T08:19:40;25.00;;;15.00;;
45893;SDS011;31603;51.148;16.932;2023-03-19T08:23:06;31.33;;;18.42;;
45893;SDS011;31603;51.148;16.932;2023-03-19T08:30:03;25.80;;;14.65;;
45893;SDS011;31603;51.148;16.932;2023-03-19T08:33:31;30.20;;;15.45;;
45893;SDS011;31603;51.148;16.932;2023-03-19T08:36:57;24.95;;;14.75;;
45893;SDS011;31603;51.148;16.932;2023-03-19T08:40:23;23.52;;;13.75;;
45893;SDS011;31603;51.148;16.932;2023-03-19T08:43:49;29.35;;;14.80;;
45893;SDS011;31603;51.148;16.932;2023-03-19T08:47:14;23.25;;;14.40;;
45893;SDS011;31603;51.148;16.932;2023-03-19T08:50:39;24.83;;;14.65;;
45893;SDS011;31603;51.148;16.932;2023-03-19T08:54:04;22.10;;;14.00;;
45893;SDS011;31603;51.148;16.932;2023-03-19T08:57:32;26.02;;;13.27;;
45893;SDS011;31603;51.148;16.932;2023-03-19T09:01:00;22.95;;;12.35;;
45893;SDS011;31603;51.148;16.932;2023-03-19T09:04:27;22.42;;;12.52;;
45893;SDS011;31603;51.148;16.932;2023-03-19T09:07:51;19.58;;;12.07;;
45893;SDS011;31603;51.148;16.932;2023-03-19T09:11:16;17.98;;;11.38;;
45893;SDS011;31603;51.148;16.932;2023-03-19T09:14:44;18.65;;;11.25;;
45893;SDS011;31603;51.148;16.932;2023-03-19T09:18:09;21.35;;;11.93;;
45893;SDS011;31603;51.148;16.932;2023-03-19T09:21:35;18.25;;;10.73;;
45893;SDS011;31603;51.148;16.932;2023-03-19T09:25:00;18.80;;;11.10;;
45893;SDS011;31603;51.148;16.932;2023-03-19T09:28:24;20.83;;;11.85;;
45893;SDS011;31603;51.148;16.932;2023-03-19T09:31:51;20.23;;;11.70;;
45893;SDS011;31603;51.148;16.932;2023-03-19T09:35:16;21.15;;;12.65;;
45893;SDS011;31603;51.148;16.932;2023-03-19T09:38:42;23.08;;;11.95;;
45893;SDS011;31603;51.148;16.932;2023-03-19T09:42:11;19.98;;;10.65;;
45893;SDS011;31603;51.148;16.932;2023-03-19T09:46:05;19.73;;;10.90;;
45893;SDS011;31603;51.148;16.932;2023-03-19T09:49:45;20.77;;;11.02;;
45893;SDS011;31603;51.148;16.932;2023-03-19T09:53:13;16.63;;;10.52;;
45893;SDS011;31603;51.148;16.932;2023-03-19T09:56:45;16.50;;;10.63;;
45893;SDS011;31603;51.148;16.932;2023-03-19T10:00:18;17.70;;;10.63;;
45893;SDS011;31603;51.148;16.932;2023-03-19T10:03:55;17.23;;;11.35;;
45893;SDS011;31603;51.148;16.932;2023-03-19T10:11:28;18.02;;;12.48;;
45893;SDS011;31603;51.148;16.932;2023-03-19T10:15:09;16.13;;;10.32;;
45893;SDS011;31603;51.148;16.932;2023-03-19T10:18:43;17.95;;;11.45;;
45893;SDS011;31603;51.148;16.932;2023-03-19T10:22:17;17.75;;;11.30;;
45893;SDS011;31603;51.148;16.932;2023-03-19T10:25:50;16.65;;;10.15;;
45893;SDS011;31603;51.148;16.932;2023-03-19T10:29:22;16.58;;;10.43;;
45893;SDS011;31603;51.148;16.932;2023-03-19T10:32:49;17.58;;;11.07;;
45893;SDS011;31603;51.148;16.932;2023-03-19T10:36:25;17.67;;;10.02;;
45893;SDS011;31603;51.148;16.932;2023-03-19T10:39:54;13.95;;;8.77;;
45893;SDS011;31603;51.148;16.932;2023-03-19T10:43:29;14.65;;;8.75;;
45893;SDS011;31603;51.148;16.932;2023-03-19T10:46:57;13.07;;;8.90;;
45893;SDS011;31603;51.148;16.932;2023-03-19T10:50:27;11.88;;;8.80;;
45893;SDS011;31603;51.148;16.932;2023-03-19T10:53:54;12.82;;;7.50;;
45893;SDS011;31603;51.148;16.932;2023-03-19T10:57:28;12.00;;;6.95;;
45893;SDS011;31603;51.148;16.932;2023-03-19T11:00:55;11.20;;;7.15;;
45893;SDS011;31603;51.148;16.932;2023-03-19T11:04:22;14.10;;;7.75;;
45893;SDS011;31603;51.148;16.932;2023-03-19T11:07:53;10.88;;;7.07;;
45893;SDS011;31603;51.148;16.932;2023-03-19T11:11:22;12.35;;;7.38;;
45893;SDS011;31603;51.148;16.932;2023-03-19T11:14:50;11.25;;;6.95;;
45893;SDS011;31603;51.148;16.932;2023-03-19T11:18:18;13.38;;;7.55;;
45893;SDS011;31603;51.148;16.932;2023-03-19T11:22:01;11.43;;;7.95;;
45893;SDS011;31603;51.148;16.932;2023-03-19T11:25:33;10.95;;;7.30;;
45893;SDS011;31603;51.148;16.932;2023-03-19T11:29:02;11.65;;;7.40;;
45893;SDS011;31603;51.148;16.932;2023-03-19T11:32:39;12.02;;;7.22;;
45893;SDS011;31603;51.148;16.932;2023-03-19T11:35:30;11.55;;;6.40;;
45893;SDS011;31603;51.148;16.932;2023-03-19T11:39:04;13.38;;;8.20;;
45893;SDS011;31603;51.148;16.932;2023-03-19T11:42:46;9.80;;;7.00;;
45893;SDS011;31603;51.148;16.932;2023-03-19T11:46:19;12.23;;;7.20;;
45893;SDS011;31603;51.148;16.932;2023-03-19T11:49:57;11.68;;;7.70;;
45893;SDS011;31603;51.148;16.932;2023-03-19T11:53:32;10.70;;;6.80;;
45893;SDS011;31603;51.148;16.932;2023-03-19T11:57:07;11.18;;;7.25;;
45893;SDS011;31603;51.148;16.932;2023-03-19T12:00:45;11.77;;;7.22;;
45893;SDS011;31603;51.148;16.932;2023-03-19T12:04:25;9.25;;;6.65;;
45893;SDS011;31603;51.148;16.932;2023-03-19T12:08:05;10.88;;;7.15;;
45893;SDS011;31603;51.148;16.932;2023-03-19T12:11:38;10.10;;;6.53;;
45893;SDS011;31603;51.148;16.932;2023-03-19T12:15:12;10.63;;;7.35;;
45893;SDS011;31603;51.148;16.932;2023-03-19T12:18:48;12.52;;;7.20;;
45893;SDS011;31603;51.148;16.932;2023-03-19T12:22:29;10.52;;;6.55;;
45893;SDS011;31603;51.148;16.932;2023-03-19T12:25:23;12.13;;;6.93;;
45893;SDS011;31603;51.148;16.932;2023-03-19T12:29:03;9.85;;;6.07;;
45893;SDS011;31603;51.148;16.932;2023-03-19T12:32:41;10.20;;;7.03;;
45893;SDS011;31603;51.148;16.932;2023-03-19T12:36:14;9.77;;;5.95;;
45893;SDS011;31603;51.148;16.932;2023-03-19T12:38:47;9.68;;;6.45;;
45893;SDS011;31603;51.148;16.932;2023-03-19T12:41:19;11.40;;;7.10;;
45893;SDS011;31603;51.148;16.932;2023-03-19T12:43:51;10.25;;;6.75;;
45893;SDS011;31603;51.148;16.932;2023-03-19T12:47:21;12.53;;;7.70;;
45893;SDS011;31603;51.148;16.932;2023-03-19T12:50:51;10.30;;;7.05;;
45893;SDS011;31603;51.148;16.932;2023-03-19T12:54:22;11.65;;;7.10;;
45893;SDS011;31603;51.148;16.932;2023-03-19T12:57:52;10.57;;;6.90;;
45893;SDS011;31603;51.148;16.932;2023-03-19T13:01:24;9.18;;;6.82;;
45893;SDS011;31603;51.148;16.932;2023-03-19T13:04:54;9.80;;;6.57;;
45893;SDS011;31603;51.148;16.932;2023-03-19T13:08:25;11.60;;;7.68;;
45893;SDS011;31603;51.148;16.932;2023-03-19T13:11:54;11.45;;;7.18;;
45893;SDS011;31603;51.148;16.932;2023-03-19T13:15:22;9.48;;;5.95;;
45893;SDS011;31603;51.148;16.932;2023-03-19T13:18:56;10.25;;;6.57;;
45893;SDS011;31603;51.148;16.932;2023-03-19T13:22:24;16.40;;;7.78;;
45893;SDS011;31603;51.148;16.932;2023-03-19T13:25:50;10.82;;;7.20;;
45893;SDS011;31603;51.148;16.932;2023-03-19T13:29:18;10.50;;;7.07;;
45893;SDS011;31603;51.148;16.932;2023-03-19T13:32:46;9.77;;;6.00;;
45893;SDS011;31603;51.148;16.932;2023-03-19T13:36:18;11.27;;;7.15;;
45893;SDS011;31603;51.148;16.932;2023-03-19T13:39:46;12.05;;;7.80;;
45893;SDS011;31603;51.148;16.932;2023-03-19T13:43:23;10.10;;;7.22;;
45893;SDS011;31603;51.148;16.932;2023-03-19T13:51:03;12.07;;;7.60;;
45893;SDS011;31603;51.148;16.932;2023-03-19T13:54:52;12.20;;;7.25;;
45893;SDS011;31603;51.148;16.932;2023-03-19T13:59:17;11.40;;;7.82;;
45893;SDS011;31603;51.148;16.932;2023-03-19T14:01:43;12.05;;;7.63;;
45893;SDS011;31603;51.148;16.932;2023-03-19T14:04:16;12.73;;;7.43;;
45893;SDS011;31603;51.148;16.932;2023-03-19T14:06:44;10.18;;;6.78;;
45893;SDS011;31603;51.148;16.932;2023-03-19T14:09:26;12.50;;;7.07;;
45893;SDS011;31603;51.148;16.932;2023-03-19T14:11:54;12.65;;;7.70;;
45893;SDS011;31603;51.148;16.932;2023-03-19T14:14:22;10.40;;;6.65;;
45893;SDS011;31603;51.148;16.932;2023-03-19T14:16:49;10.10;;;6.75;;
45893;SDS011;31603;51.148;16.932;2023-03-19T14:19:17;11.07;;;7.10;;
45893;SDS011;31603;51.148;16.932;2023-03-19T14:21:45;10.60;;;6.60;;
45893;SDS011;31603;51.148;16.932;2023-03-19T14:24:27;11.75;;;7.68;;
45893;SDS011;31603;51.148;16.932;2023-03-19T14:26:55;12.82;;;7.30;;
45893;SDS011;31603;51.148;16.932;2023-03-19T14:29:24;10.52;;;6.97;;
45893;SDS011;31603;51.148;16.932;2023-03-19T14:31:51;14.68;;;7.93;;
45893;SDS011;31603;51.148;16.932;2023-03-19T14:34:19;11.95;;;8.13;;
45893;SDS011;31603;51.148;16.932;2023-03-19T14:36:48;12.05;;;8.05;;
45893;SDS011;31603;51.148;16.932;2023-03-19T14:39:17;13.13;;;8.27;;
45893;SDS011;31603;51.148;16.932;2023-03-19T14:41:45;12.18;;;7.88;;
45893;SDS011;31603;51.148;16.932;2023-03-19T14:47:13;12.73;;;7.55;;
45893;SDS011;31603;51.148;16.932;2023-03-19T14:49:47;13.68;;;8.60;;
45893;SDS011;31603;51.148;16.932;2023-03-19T14:52:16;12.50;;;8.13;;
45893;SDS011;31603;51.148;16.932;2023-03-19T14:54:45;14.32;;;8.15;;
45893;SDS011;31603;51.148;16.932;2023-03-19T14:57:15;11.80;;;7.65;;
45893;SDS011;31603;51.148;16.932;2023-03-19T14:59:42;10.77;;;6.97;;
45893;SDS011;31603;51.148;16.932;2023-03-19T15:02:18;13.07;;;7.60;;
45893;SDS011;31603;51.148;16.932;2023-03-19T15:04:45;12.57;;;7.93;;
45893;SDS011;31603;51.148;16.932;2023-03-19T15:07:16;11.73;;;8.15;;
45893;SDS011;31603;51.148;16.932;2023-03-19T15:09:44;13.80;;;9.18;;
45893;SDS011;31603;51.148;16.932;2023-03-19T15:15:07;11.18;;;7.35;;
45893;SDS011;31603;51.148;16.932;2023-03-19T15:20:07;9.27;;;6.88;;
45893;SDS011;31603;51.148;16.932;2023-03-19T15:22:39;14.95;;;8.05;;
45893;SDS011;31603;51.148;16.932;2023-03-19T15:25:05;14.75;;;7.97;;
45893;SDS011;31603;51.148;16.932;2023-03-19T15:27:32;12.18;;;7.47;;
45893;SDS011;31603;51.148;16.932;2023-03-19T15:29:59;12.73;;;7.45;;
45893;SDS011;31603;51.148;16.932;2023-03-19T15:32:32;10.23;;;7.00;;
45893;SDS011;31603;51.148;16.932;2023-03-19T15:34:58;9.27;;;6.97;;
45893;SDS011;31603;51.148;16.932;2023-03-19T15:37:26;11.85;;;7.97;;
45893;SDS011;31603;51.148;16.932;2023-03-19T15:39:54;12.10;;;7.75;;
45893;SDS011;31603;51.148;16.932;2023-03-19T15:42:21;10.93;;;7.32;;
45893;SDS011;31603;51.148;16.932;2023-03-19T15:44:49;12.93;;;7.80;;
45893;SDS011;31603;51.148;16.932;2023-03-19T15:47:18;17.17;;;8.38;;
45893;SDS011;31603;51.148;16.932;2023-03-19T15:49:47;12.80;;;7.68;;
45893;SDS011;31603;51.148;16.932;2023-03-19T15:52:25;15.73;;;9.77;;
45893;SDS011;31603;51.148;16.932;2023-03-19T15:54:52;15.85;;;9.95;;
45893;SDS011;31603;51.148;16.932;2023-03-19T15:57:20;13.80;;;9.57;;
45893;SDS011;31603;51.148;16.932;2023-03-19T15:59:50;14.05;;;9.05;;
45893;SDS011;31603;51.148;16.932;2023-03-19T16:02:20;15.20;;;10.68;;
45893;SDS011;31603;51.148;16.932;2023-03-19T16:04:48;14.07;;;9.25;;
45893;SDS011;31603;51.148;16.932;2023-03-19T16:07:23;14.65;;;8.77;;
45893;SDS011;31603;51.148;16.932;2023-03-19T16:09:51;13.43;;;8.13;;
45893;SDS011;31603;51.148;16.932;2023-03-19T16:17:49;13.45;;;7.88;;
45893;SDS011;31603;51.148;16.932;2023-03-19T16:20:16;13.77;;;8.50;;
45893;SDS011;31603;51.148;16.932;2023-03-19T16:22:52;14.88;;;9.80;;
45893;SDS011;31603;51.148;16.932;2023-03-19T16:25:20;16.05;;;10.48;;
45893;SDS011;31603;51.148;16.932;2023-03-19T16:27:48;18.40;;;12.02;;
45893;SDS011;31603;51.148;16.932;2023-03-19T16:30:18;21.60;;;11.10;;
45893;SDS011;31603;51.148;16.932;2023-03-19T16:32:55;18.37;;;10.40;;
45893;SDS011;31603;51.148;16.932;2023-03-19T16:35:21;14.27;;;9.25;;
45893;SDS011;31603;51.148;16.932;2023-03-19T16:37:49;13.88;;;8.65;;
45893;SDS011;31603;51.148;16.932;2023-03-19T16:43:06;17.38;;;10.15;;